sensor_id;sensor_type;location;lat;lon;timestamp;P1;durP1;ratioP1;P2;durP2;ratioP2
15293;SDS011;74171;52.534;13.436;2024-01-07T00:01:22;4.25;;;3.05;;
15293;SDS011;74171;52.534;13.436;2024-01-07T00:03:28;6.25;;;4.05;;
15293;SDS011;74171;52.534;13.436;2024-01-07T00:05:31;5.13;;;4.35;;
15293;SDS011;74171;52.534;13.436;2024-01-07T00:07:37;4.97;;;3.70;;
15293;SDS011;74171;52.534;13.436;2024-01-07T00:09:39;5.00;;;3.53;;
15293;SDS011;74171;52.534;13.436;2024-01-07T00:11:42;6.25;;;3.70;;
15293;SDS011;74171;52.534;13.436;2024-01-07T00:13:45;5.15;;;3.85;;
15293;SDS011;74171;52.534;13.436;2024-01-07T00:15:49;5.88;;;4.32;;
15293;SDS011;74171;52.534;13.436;2024-01-07T00:17:55;8.70;;;4.25;;
15293;SDS011;74171;52.534;13.436;2024-01-07T00:19:59;7.00;;;4.15;;
15293;SDS011;74171;52.534;13.436;2024-01-07T00:22:05;7.28;;;4.13;;
15293;SDS011;74171;52.534;13.436;2024-01-07T00:24:08;5.93;;;4.10;;
15293;SDS011;74171;52.534;13.436;2024-01-07T00:26:11;7.55;;;5.22;;
15293;SDS011;74171;52.534;13.436;2024-01-07T00:28:15;4.38;;;3.28;;
15293;SDS011;74171;52.534;13.436;2024-01-07T00:30:18;4.80;;;3.28;;
15293;SDS011;74171;52.534;13.436;2024-01-07T00:32:22;6.57;;;4.32;;
15293;SDS011;74171;52.534;13.436;2024-01-07T00:34:24;9.02;;;4.82;;
15293;SDS011;74171;52.534;13.436;2024-01-07T00:36:29;5.90;;;3.33;;
15293;SDS011;74171;52.534;13.436;2024-01-07T00:38:32;6.10;;;3.50;;
15293;SDS011;74171;52.534;13.436;2024-01-07T00:40:35;3.85;;;3.13;;
15293;SDS011;74171;52.534;13.436;2024-01-07T00:42:39;8.18;;;4.13;;
15293;SDS011;74171;52.534;13.436;2024-01-07T00:44:42;6.43;;;3.53;;
15293;SDS011;74171;52.534;13.436;2024-01-07T00:46:44;4.78;;;3.38;;
15293;SDS011;74171;52.534;13.436;2024-01-07T00:48:49;7.80;;;3.50;;
15293;SDS011;74171;52.534;13.436;2024-01-07T00:50:53;4.78;;;3.78;;
15293;SDS011;74171;52.534;13.436;2024-01-07T00:52:57;5.13;;;3.72;;
15293;SDS011;74171;52.534;13.436;2024-01-07T00:54:59;5.43;;;3.42;;
15293;SDS011;74171;52.534;13.436;2024-01-07T00:57:05;4.15;;;3.40;;
15293;SDS011;74171;52.534;13.436;2024-01-07T00:59:06;4.95;;;3.22;;
15293;SDS011;74171;52.534;13.436;2024-01-07T01:01:09;4.90;;;3.53;;
15293;SDS011;74171;52.534;13.436;2024-01-07T01:03:13;3.50;;;3.20;;
15293;SDS011;74171;52.534;13.436;2024-01-07T01:05:14;4.47;;;3.13;;
15293;SDS011;74171;52.534;13.436;2024-01-07T01:07:17;9.38;;;3.45;;
15293;SDS011;74171;52.534;13.436;2024-01-07T01:09:22;4.38;;;2.97;;
15293;SDS011;74171;52.534;13.436;2024-01-07T01:11:25;3.83;;;3.17;;
15293;SDS011;74171;52.534;13.436;2024-01-07T01:13:28;5.38;;;2.95;;
15293;SDS011;74171;52.534;13.436;2024-01-07T01:15:31;2.38;;;2.20;;
15293;SDS011;74171;52.534;13.436;2024-01-07T01:17:34;6.88;;;3.35;;
15293;SDS011;74171;52.534;13.436;2024-01-07T01:19:38;3.25;;;2.83;;
15293;SDS011;74171;52.534;13.436;2024-01-07T01:21:41;4.53;;;3.17;;
15293;SDS011;74171;52.534;13.436;2024-01-07T01:23:46;3.08;;;2.78;;
15293;SDS011;74171;52.534;13.436;2024-01-07T01:25:50;4.90;;;3.05;;
15293;SDS011;74171;52.534;13.436;2024-01-07T01:27:53;4.35;;;3.35;;
15293;SDS011;74171;52.534;13.436;2024-01-07T01:29:56;3.53;;;3.15;;
15293;SDS011;74171;52.534;13.436;2024-01-07T01:31:59;4.55;;;3.53;;
15293;SDS011;74171;52.534;13.436;2024-01-07T01:34:02;5.82;;;3.20;;
15293;SDS011;74171;52.534;13.436;2024-01-07T01:36:05;5.10;;;3.45;;
15293;SDS011;74171;52.534;13.436;2024-01-07T01:38:09;3.67;;;2.95;;
15293;SDS011;74171;52.534;13.436;2024-01-07T01:40:11;3.55;;;3.25;;
15293;SDS011;74171;52.534;13.436;2024-01-07T01:42:16;4.95;;;3.80;;
15293;SDS011;74171;52.534;13.436;2024-01-07T01:44:21;4.97;;;3.40;;
15293;SDS011;74171;52.534;13.436;2024-01-07T01:46:23;4.20;;;3.38;;
15293;SDS011;74171;52.534;13.436;2024-01-07T01:48:26;4.15;;;3.13;;
15293;SDS011;74171;52.534;13.436;2024-01-07T01:50:30;4.75;;;3.80;;
15293;SDS011;74171;52.534;13.436;2024-01-07T01:52:35;3.95;;;3.33;;
15293;SDS011;74171;52.534;13.436;2024-01-07T01:54:38;6.25;;;3.97;;
15293;SDS011;74171;52.534;13.436;2024-01-07T01:56:41;6.43;;;3.47;;
15293;SDS011;74171;52.534;13.436;2024-01-07T01:58:48;6.60;;;3.40;;
15293;SDS011;74171;52.534;13.436;2024-01-07T02:00:51;5.43;;;3.88;;
15293;SDS011;74171;52.534;13.436;2024-01-07T02:02:54;3.47;;;3.17;;
15293;SDS011;74171;52.534;13.436;2024-01-07T02:04:57;4.68;;;3.88;;
15293;SDS011;74171;52.534;13.436;2024-01-07T02:07:00;3.90;;;3.50;;
15293;SDS011;74171;52.534;13.436;2024-01-07T02:09:03;5.43;;;2.83;;
15293;SDS011;74171;52.534;13.436;2024-01-07T02:11:16;4.68;;;3.15;;
15293;SDS011;74171;52.534;13.436;2024-01-07T02:13:19;4.85;;;3.08;;
15293;SDS011;74171;52.534;13.436;2024-01-07T02:15:23;6.03;;;3.15;;
15293;SDS011;74171;52.534;13.436;2024-01-07T02:17:26;3.40;;;3.10;;
15293;SDS011;74171;52.534;13.436;2024-01-07T02:19:29;6.53;;;3.22;;
15293;SDS011;74171;52.534;13.436;2024-01-07T02:21:32;4.97;;;3.78;;
15293;SDS011;74171;52.534;13.436;2024-01-07T02:23:35;2.90;;;2.70;;
15293;SDS011;74171;52.534;13.436;2024-01-07T02:25:40;4.25;;;3.63;;
15293;SDS011;74171;52.534;13.436;2024-01-07T02:27:43;3.72;;;3.40;;
15293;SDS011;74171;52.534;13.436;2024-01-07T02:29:46;3.05;;;2.80;;
15293;SDS011;74171;52.534;13.436;2024-01-07T02:31:49;4.85;;;2.92;;
15293;SDS011;74171;52.534;13.436;2024-01-07T02:33:52;5.05;;;3.45;;
15293;SDS011;74171;52.534;13.436;2024-01-07T02:35:57;3.22;;;2.25;;
15293;SDS011;74171;52.534;13.436;2024-01-07T02:38:00;3.60;;;3.30;;
15293;SDS011;74171;52.534;13.436;2024-01-07T02:40:03;3.13;;;2.75;;
15293;SDS011;74171;52.534;13.436;2024-01-07T02:42:08;3.03;;;2.70;;
15293;SDS011;74171;52.534;13.436;2024-01-07T02:44:11;2.80;;;2.38;;
15293;SDS011;74171;52.534;13.436;2024-01-07T02:46:14;3.17;;;2.67;;
15293;SDS011;74171;52.534;13.436;2024-01-07T02:48:15;2.88;;;2.67;;
15293;SDS011;74171;52.534;13.436;2024-01-07T02:50:19;5.07;;;2.72;;
15293;SDS011;74171;52.534;13.436;2024-01-07T02:52:22;3.03;;;2.72;;
15293;SDS011;74171;52.534;13.436;2024-01-07T02:54:24;3.55;;;3.25;;
15293;SDS011;74171;52.534;13.436;2024-01-07T02:56:28;3.15;;;2.85;;
15293;SDS011;74171;52.534;13.436;2024-01-07T02:58:32;9.10;;;2.75;;
15293;SDS011;74171;52.534;13.436;2024-01-07T03:00:35;2.30;;;2.20;;
15293;SDS011;74171;52.534;13.436;2024-01-07T03:02:39;3.72;;;3.22;;
15293;SDS011;74171;52.534;13.436;2024-01-07T03:04:42;3.15;;;2.95;;
15293;SDS011;74171;52.534;13.436;2024-01-07T03:06:45;4.30;;;2.95;;
15293;SDS011;74171;52.534;13.436;2024-01-07T03:08:48;3.75;;;2.85;;
15293;SDS011;74171;52.534;13.436;2024-01-07T03:10:51;3.47;;;2.67;;
15293;SDS011;74171;52.534;13.436;2024-01-07T03:12:54;5.40;;;2.63;;
15293;SDS011;74171;52.534;13.436;2024-01-07T03:14:58;3.15;;;2.85;;
15293;SDS011;74171;52.534;13.436;2024-01-07T03:17:01;3.15;;;2.55;;
15293;SDS011;74171;52.534;13.436;2024-01-07T03:19:04;2.90;;;2.70;;
15293;SDS011;74171;52.534;13.436;2024-01-07T03:21:15;2.95;;;2.75;;
15293;SDS011;74171;52.534;13.436;2024-01-07T03:23:19;3.35;;;3.05;;
15293;SDS011;74171;52.534;13.436;2024-01-07T03:25:21;3.42;;;3.13;;
15293;SDS011;74171;52.534;13.436;2024-01-07T03:27:24;3.80;;;3.30;;
15293;SDS011;74171;52.534;13.436;2024-01-07T03:29:27;4.25;;;3.30;;
15293;SDS011;74171;52.534;13.436;2024-01-07T03:31:32;3.15;;;2.85;;
15293;SDS011;74171;52.534;13.436;2024-01-07T03:33:35;3.35;;;3.05;;
15293;SDS011;74171;52.534;13.436;2024-01-07T03:35:38;3.35;;;2.97;;
15293;SDS011;74171;52.534;13.436;2024-01-07T03:37:41;3.60;;;2.72;;
15293;SDS011;74171;52.534;13.436;2024-01-07T03:39:44;3.60;;;2.65;;
15293;SDS011;74171;52.534;13.436;2024-01-07T03:41:48;3.13;;;2.40;;
15293;SDS011;74171;52.534;13.436;2024-01-07T03:43:51;3.33;;;3.03;;
15293;SDS011;74171;52.534;13.436;2024-01-07T03:45:54;3.88;;;2.90;;
15293;SDS011;74171;52.534;13.436;2024-01-07T03:47:58;4.68;;;3.05;;
15293;SDS011;74171;52.534;13.436;2024-01-07T03:50:02;4.88;;;2.75;;
15293;SDS011;74171;52.534;13.436;2024-01-07T03:52:04;4.90;;;3.45;;
15293;SDS011;74171;52.534;13.436;2024-01-07T03:54:08;3.90;;;3.30;;
15293;SDS011;74171;52.534;13.436;2024-01-07T03:56:11;4.85;;;3.10;;
15293;SDS011;74171;52.534;13.436;2024-01-07T03:58:13;3.25;;;2.95;;
15293;SDS011;74171;52.534;13.436;2024-01-07T04:00:16;3.45;;;3.08;;
15293;SDS011;74171;52.534;13.436;2024-01-07T04:02:19;3.53;;;2.95;;
15293;SDS011;74171;52.534;13.436;2024-01-07T04:04:24;4.95;;;3.20;;
15293;SDS011;74171;52.534;13.436;2024-01-07T04:06:28;3.55;;;3.25;;
15293;SDS011;74171;52.534;13.436;2024-01-07T04:08:31;3.92;;;3.13;;
15293;SDS011;74171;52.534;13.436;2024-01-07T04:10:33;4.82;;;3.30;;
15293;SDS011;74171;52.534;13.436;2024-01-07T04:12:36;4.95;;;3.22;;
15293;SDS011;74171;52.534;13.436;2024-01-07T04:14:39;3.92;;;3.33;;
15293;SDS011;74171;52.534;13.436;2024-01-07T04:16:42;4.13;;;3.38;;
15293;SDS011;74171;52.534;13.436;2024-01-07T04:18:45;6.55;;;3.03;;
15293;SDS011;74171;52.534;13.436;2024-01-07T04:20:55;3.50;;;3.13;;
15293;SDS011;74171;52.534;13.436;2024-01-07T04:22:58;2.75;;;2.55;;
15293;SDS011;74171;52.534;13.436;2024-01-07T04:25:01;5.18;;;2.80;;
15293;SDS011;74171;52.534;13.436;2024-01-07T04:27:03;3.38;;;3.08;;
15293;SDS011;74171;52.534;13.436;2024-01-07T04:29:06;4.55;;;2.88;;
15293;SDS011;74171;52.534;13.436;2024-01-07T04:31:08;4.05;;;2.97;;
15293;SDS011;74171;52.534;13.436;2024-01-07T04:33:11;3.63;;;3.33;;
15293;SDS011;74171;52.534;13.436;2024-01-07T04:35:14;2.83;;;2.53;;
15293;SDS011;74171;52.534;13.436;2024-01-07T04:37:18;4.60;;;3.78;;
15293;SDS011;74171;52.534;13.436;2024-01-07T04:39:21;3.83;;;2.60;;
15293;SDS011;74171;52.534;13.436;2024-01-07T04:41:23;3.78;;;3.08;;
15293;SDS011;74171;52.534;13.436;2024-01-07T04:43:26;3.05;;;2.70;;
15293;SDS011;74171;52.534;13.436;2024-01-07T04:45:29;2.67;;;2.47;;
15293;SDS011;74171;52.534;13.436;2024-01-07T04:47:32;3.17;;;2.88;;
15293;SDS011;74171;52.534;13.436;2024-01-07T04:49:36;3.83;;;2.90;;
15293;SDS011;74171;52.534;13.436;2024-01-07T04:51:40;5.32;;;2.85;;
15293;SDS011;74171;52.534;13.436;2024-01-07T04:53:44;4.40;;;3.10;;
15293;SDS011;74171;52.534;13.436;2024-01-07T04:55:50;3.03;;;2.72;;
15293;SDS011;74171;52.534;13.436;2024-01-07T04:57:53;3.17;;;2.67;;
15293;SDS011;74171;52.534;13.436;2024-01-07T04:59:56;5.95;;;2.85;;
15293;SDS011;74171;52.534;13.436;2024-01-07T05:01:59;3.92;;;3.58;;
15293;SDS011;74171;52.534;13.436;2024-01-07T05:04:02;3.67;;;2.95;;
15293;SDS011;74171;52.534;13.436;2024-01-07T05:06:07;4.22;;;2.72;;
15293;SDS011;74171;52.534;13.436;2024-01-07T05:08:10;4.25;;;3.00;;
15293;SDS011;74171;52.534;13.436;2024-01-07T05:10:13;4.60;;;2.53;;
15293;SDS011;74171;52.534;13.436;2024-01-07T05:12:16;5.32;;;3.03;;
15293;SDS011;74171;52.534;13.436;2024-01-07T05:14:19;2.90;;;2.70;;
15293;SDS011;74171;52.534;13.436;2024-01-07T05:16:21;4.00;;;3.45;;
15293;SDS011;74171;52.534;13.436;2024-01-07T05:18:27;3.45;;;2.83;;
15293;SDS011;74171;52.534;13.436;2024-01-07T05:20:32;3.58;;;2.97;;
15293;SDS011;74171;52.534;13.436;2024-01-07T05:22:36;3.38;;;3.08;;
15293;SDS011;74171;52.534;13.436;2024-01-07T05:24:39;5.25;;;3.15;;
15293;SDS011;74171;52.534;13.436;2024-01-07T05:26:44;2.80;;;2.55;;
15293;SDS011;74171;52.534;13.436;2024-01-07T05:28:49;3.03;;;2.83;;
15293;SDS011;74171;52.534;13.436;2024-01-07T05:30:51;3.47;;;3.17;;
15293;SDS011;74171;52.534;13.436;2024-01-07T05:32:55;3.47;;;3.10;;
15293;SDS011;74171;52.534;13.436;2024-01-07T05:34:58;3.58;;;3.28;;
15293;SDS011;74171;52.534;13.436;2024-01-07T05:37:00;3.22;;;2.92;;
15293;SDS011;74171;52.534;13.436;2024-01-07T05:39:04;5.60;;;3.50;;
15293;SDS011;74171;52.534;13.436;2024-01-07T05:41:07;3.65;;;3.35;;
15293;SDS011;74171;52.534;13.436;2024-01-07T05:43:12;3.22;;;2.90;;
15293;SDS011;74171;52.534;13.436;2024-01-07T05:45:15;3.78;;;2.85;;
15293;SDS011;74171;52.534;13.436;2024-01-07T05:47:18;7.28;;;3.58;;
15293;SDS011;74171;52.534;13.436;2024-01-07T05:49:21;4.00;;;2.90;;
15293;SDS011;74171;52.534;13.436;2024-01-07T05:51:24;4.65;;;3.10;;
15293;SDS011;74171;52.534;13.436;2024-01-07T05:53:27;3.63;;;3.33;;
15293;SDS011;74171;52.534;13.436;2024-01-07T05:55:30;5.80;;;3.15;;
15293;SDS011;74171;52.534;13.436;2024-01-07T05:57:33;3.75;;;3.40;;
15293;SDS011;74171;52.534;13.436;2024-01-07T05:59:38;4.22;;;3.33;;
15293;SDS011;74171;52.534;13.436;2024-01-07T06:01:41;4.03;;;3.28;;
15293;SDS011;74171;52.534;13.436;2024-01-07T06:03:44;3.22;;;2.85;;
15293;SDS011;74171;52.534;13.436;2024-01-07T06:05:46;5.32;;;3.42;;
15293;SDS011;74171;52.534;13.436;2024-01-07T06:07:49;4.57;;;3.38;;
15293;SDS011;74171;52.534;13.436;2024-01-07T06:09:52;3.55;;;3.25;;
15293;SDS011;74171;52.534;13.436;2024-01-07T06:11:55;4.07;;;3.70;;
15293;SDS011;74171;52.534;13.436;2024-01-07T06:13:58;3.70;;;3.30;;
15293;SDS011;74171;52.534;13.436;2024-01-07T06:16:02;4.50;;;3.78;;
15293;SDS011;74171;52.534;13.436;2024-01-07T06:18:06;4.72;;;3.53;;
15293;SDS011;74171;52.534;13.436;2024-01-07T06:20:08;6.15;;;3.67;;
15293;SDS011;74171;52.534;13.436;2024-01-07T06:22:13;5.03;;;3.17;;
15293;SDS011;74171;52.534;13.436;2024-01-07T06:24:15;3.65;;;2.97;;
15293;SDS011;74171;52.534;13.436;2024-01-07T06:26:18;9.85;;;3.90;;
15293;SDS011;74171;52.534;13.436;2024-01-07T06:28:21;4.45;;;3.80;;
15293;SDS011;74171;52.534;13.436;2024-01-07T06:30:24;4.20;;;3.80;;
15293;SDS011;74171;52.534;13.436;2024-01-07T06:32:28;5.28;;;3.35;;
15293;SDS011;74171;52.534;13.436;2024-01-07T06:34:31;4.30;;;3.63;;
15293;SDS011;74171;52.534;13.436;2024-01-07T06:36:34;5.10;;;3.20;;
15293;SDS011;74171;52.534;13.436;2024-01-07T06:38:37;6.70;;;4.20;;
15293;SDS011;74171;52.534;13.436;2024-01-07T06:40:41;4.68;;;3.60;;
15293;SDS011;74171;52.534;13.436;2024-01-07T06:42:44;4.50;;;3.40;;
15293;SDS011;74171;52.534;13.436;2024-01-07T06:44:49;3.47;;;3.17;;
15293;SDS011;74171;52.534;13.436;2024-01-07T06:46:52;3.75;;;3.40;;
15293;SDS011;74171;52.534;13.436;2024-01-07T06:48:56;4.75;;;3.33;;
15293;SDS011;74171;52.534;13.436;2024-01-07T06:51:00;3.97;;;3.15;;
15293;SDS011;74171;52.534;13.436;2024-01-07T06:53:03;4.22;;;3.05;;
15293;SDS011;74171;52.534;13.436;2024-01-07T06:55:07;4.50;;;4.03;;
15293;SDS011;74171;52.534;13.436;2024-01-07T06:57:10;3.40;;;3.10;;
15293;SDS011;74171;52.534;13.436;2024-01-07T06:59:12;6.68;;;3.40;;
15293;SDS011;74171;52.534;13.436;2024-01-07T07:01:17;3.78;;;3.35;;
15293;SDS011;74171;52.534;13.436;2024-01-07T07:03:22;3.30;;;3.00;;
15293;SDS011;74171;52.534;13.436;2024-01-07T07:05:26;4.88;;;3.35;;
15293;SDS011;74171;52.534;13.436;2024-01-07T07:07:29;3.63;;;2.90;;
15293;SDS011;74171;52.534;13.436;2024-01-07T07:09:35;4.15;;;3.75;;
15293;SDS011;74171;52.534;13.436;2024-01-07T07:11:38;4.70;;;4.18;;
15293;SDS011;74171;52.534;13.436;2024-01-07T07:13:40;3.17;;;2.78;;
15293;SDS011;74171;52.534;13.436;2024-01-07T07:15:43;4.50;;;4.07;;
15293;SDS011;74171;52.534;13.436;2024-01-07T07:17:45;6.63;;;3.10;;
15293;SDS011;74171;52.534;13.436;2024-01-07T07:19:48;4.57;;;3.53;;
15293;SDS011;74171;52.534;13.436;2024-01-07T07:21:53;3.40;;;3.10;;
15293;SDS011;74171;52.534;13.436;2024-01-07T07:23:58;6.13;;;3.28;;
15293;SDS011;74171;52.534;13.436;2024-01-07T07:26:01;3.42;;;3.10;;
15293;SDS011;74171;52.534;13.436;2024-01-07T07:28:05;6.07;;;3.28;;
15293;SDS011;74171;52.534;13.436;2024-01-07T07:30:08;4.38;;;2.92;;
15293;SDS011;74171;52.534;13.436;2024-01-07T07:32:12;3.78;;;3.03;;
15293;SDS011;74171;52.534;13.436;2024-01-07T07:34:15;5.40;;;3.65;;
15293;SDS011;74171;52.534;13.436;2024-01-07T07:36:18;4.38;;;3.10;;
15293;SDS011;74171;52.534;13.436;2024-01-07T07:38:22;6.60;;;3.47;;
15293;SDS011;74171;52.534;13.436;2024-01-07T07:40:25;3.88;;;3.33;;
15293;SDS011;74171;52.534;13.436;2024-01-07T07:42:28;4.53;;;3.08;;
15293;SDS011;74171;52.534;13.436;2024-01-07T07:44:32;5.18;;;3.45;;
15293;SDS011;74171;52.534;13.436;2024-01-07T07:46:36;4.47;;;3.60;;
15293;SDS011;74171;52.534;13.436;2024-01-07T07:48:39;4.40;;;3.30;;
15293;SDS011;74171;52.534;13.436;2024-01-07T07:50:45;4.53;;;3.47;;
15293;SDS011;74171;52.534;13.436;2024-01-07T07:52:49;2.83;;;2.63;;
15293;SDS011;74171;52.534;13.436;2024-01-07T07:54:53;3.47;;;3.03;;
15293;SDS011;74171;52.534;13.436;2024-01-07T07:56:56;3.30;;;2.85;;
15293;SDS011;74171;52.534;13.436;2024-01-07T07:59:00;3.15;;;2.85;;
15293;SDS011;74171;52.534;13.436;2024-01-07T08:01:04;3.50;;;3.20;;
15293;SDS011;74171;52.534;13.436;2024-01-07T08:03:08;3.60;;;3.05;;
15293;SDS011;74171;52.534;13.436;2024-01-07T08:05:11;3.55;;;3.00;;
15293;SDS011;74171;52.534;13.436;2024-01-07T08:07:14;3.65;;;3.17;;
15293;SDS011;74171;52.534;13.436;2024-01-07T08:09:18;5.82;;;3.70;;
15293;SDS011;74171;52.534;13.436;2024-01-07T08:11:23;3.97;;;3.38;;
15293;SDS011;74171;52.534;13.436;2024-01-07T08:13:26;5.20;;;3.42;;
15293;SDS011;74171;52.534;13.436;2024-01-07T08:15:29;3.58;;;3.28;;
15293;SDS011;74171;52.534;13.436;2024-01-07T08:17:32;3.10;;;2.80;;
15293;SDS011;74171;52.534;13.436;2024-01-07T08:19:35;5.60;;;2.95;;
15293;SDS011;74171;52.534;13.436;2024-01-07T08:21:40;3.58;;;3.20;;
15293;SDS011;74171;52.534;13.436;2024-01-07T08:23:44;3.67;;;2.80;;
15293;SDS011;74171;52.534;13.436;2024-01-07T08:25:47;3.92;;;3.08;;
15293;SDS011;74171;52.534;13.436;2024-01-07T08:27:54;4.60;;;3.47;;
15293;SDS011;74171;52.534;13.436;2024-01-07T08:29:57;4.28;;;3.28;;
15293;SDS011;74171;52.534;13.436;2024-01-07T08:32:00;5.03;;;3.33;;
15293;SDS011;74171;52.534;13.436;2024-01-07T08:34:03;3.95;;;2.90;;
15293;SDS011;74171;52.534;13.436;2024-01-07T08:36:06;3.75;;;2.95;;
15293;SDS011;74171;52.534;13.436;2024-01-07T08:38:10;5.80;;;2.40;;
15293;SDS011;74171;52.534;13.436;2024-01-07T08:40:14;3.50;;;2.75;;
15293;SDS011;74171;52.534;13.436;2024-01-07T08:42:21;3.40;;;3.00;;
15293;SDS011;74171;52.534;13.436;2024-01-07T08:44:28;4.78;;;3.85;;
15293;SDS011;74171;52.534;13.436;2024-01-07T08:46:30;5.03;;;3.42;;
15293;SDS011;74171;52.534;13.436;2024-01-07T08:48:32;5.05;;;3.40;;
15293;SDS011;74171;52.534;13.436;2024-01-07T08:50:36;3.63;;;3.33;;
15293;SDS011;74171;52.534;13.436;2024-01-07T08:52:39;5.70;;;3.42;;
15293;SDS011;74171;52.534;13.436;2024-01-07T08:54:42;5.03;;;3.58;;
15293;SDS011;74171;52.534;13.436;2024-01-07T08:56:45;5.85;;;3.47;;
15293;SDS011;74171;52.534;13.436;2024-01-07T08:58:48;4.55;;;3.47;;
15293;SDS011;74171;52.534;13.436;2024-01-07T09:00:52;6.72;;;4.28;;
15293;SDS011;74171;52.534;13.436;2024-01-07T09:02:55;4.18;;;3.28;;
15293;SDS011;74171;52.534;13.436;2024-01-07T09:04:58;3.78;;;3.35;;
15293;SDS011;74171;52.534;13.436;2024-01-07T09:07:00;4.90;;;3.90;;
15293;SDS011;74171;52.534;13.436;2024-01-07T09:09:03;5.03;;;3.78;;
15293;SDS011;74171;52.534;13.436;2024-01-07T09:11:08;4.53;;;3.30;;
15293;SDS011;74171;52.534;13.436;2024-01-07T09:13:12;5.50;;;3.40;;
15293;SDS011;74171;52.534;13.436;2024-01-07T09:15:17;5.53;;;4.15;;
15293;SDS011;74171;52.534;13.436;2024-01-07T09:17:25;7.97;;;4.55;;
15293;SDS011;74171;52.534;13.436;2024-01-07T09:19:28;5.97;;;4.35;;
15293;SDS011;74171;52.534;13.436;2024-01-07T09:21:33;7.45;;;4.97;;
15293;SDS011;74171;52.534;13.436;2024-01-07T09:23:36;5.20;;;3.78;;
15293;SDS011;74171;52.534;13.436;2024-01-07T09:25:40;5.95;;;4.38;;
15293;SDS011;74171;52.534;13.436;2024-01-07T09:27:42;6.07;;;4.57;;
15293;SDS011;74171;52.534;13.436;2024-01-07T09:29:47;6.55;;;4.18;;
15293;SDS011;74171;52.534;13.436;2024-01-07T09:33:54;9.43;;;5.07;;
15293;SDS011;74171;52.534;13.436;2024-01-07T09:35:57;6.93;;;4.07;;
15293;SDS011;74171;52.534;13.436;2024-01-07T09:38:15;7.82;;;4.32;;
15293;SDS011;74171;52.534;13.436;2024-01-07T09:40:20;6.63;;;4.38;;
15293;SDS011;74171;52.534;13.436;2024-01-07T09:42:23;6.55;;;4.90;;
15293;SDS011;74171;52.534;13.436;2024-01-07T09:44:26;5.20;;;4.32;;
15293;SDS011;74171;52.534;13.436;2024-01-07T09:46:28;7.93;;;4.63;;
15293;SDS011;74171;52.534;13.436;2024-01-07T09:48:32;7.05;;;4.88;;
15293;SDS011;74171;52.534;13.436;2024-01-07T09:50:39;6.00;;;4.65;;
15293;SDS011;74171;52.534;13.436;2024-01-07T09:52:46;5.10;;;4.43;;
15293;SDS011;74171;52.534;13.436;2024-01-07T09:54:51;7.10;;;4.60;;
15293;SDS011;74171;52.534;13.436;2024-01-07T09:56:55;7.50;;;5.47;;
15293;SDS011;74171;52.534;13.436;2024-01-07T09:58:57;7.28;;;5.00;;
15293;SDS011;74171;52.534;13.436;2024-01-07T10:01:01;6.55;;;5.13;;
15293;SDS011;74171;52.534;13.436;2024-01-07T10:03:06;6.50;;;4.50;;
15293;SDS011;74171;52.534;13.436;2024-01-07T10:05:09;6.20;;;5.10;;
15293;SDS011;74171;52.534;13.436;2024-01-07T10:07:14;8.70;;;5.05;;
15293;SDS011;74171;52.534;13.436;2024-01-07T10:09:17;6.55;;;5.15;;
15293;SDS011;74171;52.534;13.436;2024-01-07T10:11:20;7.80;;;5.32;;
15293;SDS011;74171;52.534;13.436;2024-01-07T10:13:24;7.20;;;5.30;;
15293;SDS011;74171;52.534;13.436;2024-01-07T10:15:27;7.43;;;5.20;;
15293;SDS011;74171;52.534;13.436;2024-01-07T10:17:30;6.35;;;5.25;;
15293;SDS011;74171;52.534;13.436;2024-01-07T10:19:34;6.38;;;5.28;;
15293;SDS011;74171;52.534;13.436;2024-01-07T10:21:38;6.25;;;5.13;;
15293;SDS011;74171;52.534;13.436;2024-01-07T10:23:43;6.72;;;4.70;;
15293;SDS011;74171;52.534;13.436;2024-01-07T10:26:00;9.13;;;5.10;;
15293;SDS011;74171;52.534;13.436;2024-01-07T10:29:01;7.05;;;5.05;;
15293;SDS011;74171;52.534;13.436;2024-01-07T10:31:03;7.20;;;4.95;;
15293;SDS011;74171;52.534;13.436;2024-01-07T10:33:07;6.60;;;4.53;;
15293;SDS011;74171;52.534;13.436;2024-01-07T10:35:12;7.75;;;5.10;;
15293;SDS011;74171;52.534;13.436;2024-01-07T10:37:19;8.80;;;5.68;;
15293;SDS011;74171;52.534;13.436;2024-01-07T10:39:24;8.45;;;5.28;;
15293;SDS011;74171;52.534;13.436;2024-01-07T10:41:27;7.05;;;5.38;;
15293;SDS011;74171;52.534;13.436;2024-01-07T10:43:31;6.90;;;5.28;;
15293;SDS011;74171;52.534;13.436;2024-01-07T10:45:35;7.78;;;5.63;;
15293;SDS011;74171;52.534;13.436;2024-01-07T10:47:39;7.53;;;5.32;;
15293;SDS011;74171;52.534;13.436;2024-01-07T10:49:43;7.38;;;5.50;;
15293;SDS011;74171;52.534;13.436;2024-01-07T10:51:50;5.40;;;4.45;;
15293;SDS011;74171;52.534;13.436;2024-01-07T10:54:00;7.38;;;5.68;;
15293;SDS011;74171;52.534;13.436;2024-01-07T10:56:05;9.13;;;4.70;;
15293;SDS011;74171;52.534;13.436;2024-01-07T10:58:11;7.03;;;5.65;;
15293;SDS011;74171;52.534;13.436;2024-01-07T11:00:17;5.57;;;4.40;;
15293;SDS011;74171;52.534;13.436;2024-01-07T11:02:23;7.10;;;5.28;;
15293;SDS011;74171;52.534;13.436;2024-01-07T11:04:29;6.82;;;5.60;;
15293;SDS011;74171;52.534;13.436;2024-01-07T11:06:36;9.77;;;5.90;;
15293;SDS011;74171;52.534;13.436;2024-01-07T11:08:45;9.00;;;5.07;;
15293;SDS011;74171;52.534;13.436;2024-01-07T11:10:53;11.52;;;6.68;;
15293;SDS011;74171;52.534;13.436;2024-01-07T11:13:01;8.00;;;6.05;;
15293;SDS011;74171;52.534;13.436;2024-01-07T11:15:05;8.00;;;5.97;;
15293;SDS011;74171;52.534;13.436;2024-01-07T11:17:07;9.48;;;5.47;;
15293;SDS011;74171;52.534;13.436;2024-01-07T11:19:12;9.35;;;5.20;;
15293;SDS011;74171;52.534;13.436;2024-01-07T11:21:20;7.72;;;5.28;;
15293;SDS011;74171;52.534;13.436;2024-01-07T11:23:26;6.90;;;5.50;;
15293;SDS011;74171;52.534;13.436;2024-01-07T11:25:29;9.45;;;5.47;;
15293;SDS011;74171;52.534;13.436;2024-01-07T11:27:33;8.40;;;5.85;;
15293;SDS011;74171;52.534;13.436;2024-01-07T11:29:38;5.75;;;4.85;;
15293;SDS011;74171;52.534;13.436;2024-01-07T11:31:45;10.05;;;5.80;;
15293;SDS011;74171;52.534;13.436;2024-01-07T11:33:50;9.40;;;5.93;;
15293;SDS011;74171;52.534;13.436;2024-01-07T11:35:53;15.30;;;9.40;;
15293;SDS011;74171;52.534;13.436;2024-01-07T11:37:56;9.70;;;5.47;;
15293;SDS011;74171;52.534;13.436;2024-01-07T11:39:59;11.55;;;5.78;;
15293;SDS011;74171;52.534;13.436;2024-01-07T11:42:03;6.80;;;5.18;;
15293;SDS011;74171;52.534;13.436;2024-01-07T11:44:07;8.23;;;5.90;;
15293;SDS011;74171;52.534;13.436;2024-01-07T11:46:14;6.60;;;5.45;;
15293;SDS011;74171;52.534;13.436;2024-01-07T11:48:17;6.57;;;4.82;;
15293;SDS011;74171;52.534;13.436;2024-01-07T11:50:20;5.57;;;4.10;;
15293;SDS011;74171;52.534;13.436;2024-01-07T11:52:23;5.57;;;4.53;;
15293;SDS011;74171;52.534;13.436;2024-01-07T11:54:25;7.47;;;4.85;;
15293;SDS011;74171;52.534;13.436;2024-01-07T11:56:28;7.88;;;4.18;;
15293;SDS011;74171;52.534;13.436;2024-01-07T11:58:31;6.90;;;5.18;;
15293;SDS011;74171;52.534;13.436;2024-01-07T12:00:39;5.15;;;4.10;;
15293;SDS011;74171;52.534;13.436;2024-01-07T12:02:46;10.93;;;6.50;;
15293;SDS011;74171;52.534;13.436;2024-01-07T12:04:50;7.32;;;5.00;;
15293;SDS011;74171;52.534;13.436;2024-01-07T12:06:53;6.82;;;4.68;;
15293;SDS011;74171;52.534;13.436;2024-01-07T12:08:55;5.97;;;4.68;;
15293;SDS011;74171;52.534;13.436;2024-01-07T12:10:59;9.45;;;4.97;;
15293;SDS011;74171;52.534;13.436;2024-01-07T12:13:03;7.88;;;5.07;;
15293;SDS011;74171;52.534;13.436;2024-01-07T12:15:07;6.78;;;5.05;;
15293;SDS011;74171;52.534;13.436;2024-01-07T12:17:12;7.85;;;4.90;;